createdAt,value
2019-04-09T00:00:48.272Z,100023.16
2019-04-09T00:03:15.698Z,100022.59
2019-04-09T00:05:43.184Z,100020.79
2019-04-09T00:08:11.142Z,100020.98
2019-04-09T00:10:39.034Z,100017.09
2019-04-09T00:13:07.178Z,100009.77
2019-04-09T00:15:34.523Z,100015.92
2019-04-09T00:18:01.870Z,100014.72
2019-04-09T00:20:30.799Z,100010.70
2019-04-09T00:22:58.000Z,100009.05
2019-04-09T00:25:25.199Z,100019.41
2019-04-09T00:27:52.952Z,100014.78
2019-04-09T00:30:20.713Z,100011.98
2019-04-09T00:32:48.742Z,100006.14
2019-04-09T00:35:16.862Z,100012.45
2019-04-09T00:37:43.919Z,100006.32
2019-04-09T00:40:11.132Z,100004.26
2019-04-09T00:42:38.179Z,100008.45
2019-04-09T00:45:06.021Z,100004.09
2019-04-09T00:47:34.820Z,100002.84
2019-04-09T00:50:02.908Z,100003.36
2019-04-09T00:52:30.712Z,100003.17
2019-04-09T00:54:58.447Z,100004.61
2019-04-09T00:57:25.707Z,100004.90
2019-04-09T00:59:52.952Z,100015.09
2019-04-09T01:02:20.536Z,100018.64
2019-04-09T01:04:48.595Z,100013.30
2019-04-09T01:07:16.639Z,100019.08
2019-04-09T01:09:43.874Z,100018.62
2019-04-09T01:12:12.168Z,100023.31
2019-04-09T01:14:39.983Z,100027.20
2019-04-09T01:17:07.174Z,100022.22
2019-04-09T01:19:34.237Z,100020.75
2019-04-09T01:22:01.873Z,100019.59
2019-04-09T01:24:35.679Z,100024.89
2019-04-09T01:27:13.822Z,100022.53
2019-04-09T01:29:49.123Z,100021.18
2019-04-09T01:32:35.840Z,100025.70
2019-04-09T01:35:21.618Z,100018.09
2019-04-09T01:38:08.371Z,100015.27
2019-04-09T01:40:55.232Z,100019.59
2019-04-09T01:43:34.223Z,100019.28
2019-04-09T01:46:26.733Z,100023.00
2019-04-09T01:49:19.952Z,100024.12
2019-04-09T01:52:12.152Z,100029.53
2019-04-09T01:54:46.229Z,100028.60
2019-04-09T01:57:34.911Z,100029.56
2019-04-09T02:00:20.293Z,100024.53
2019-04-09T02:03:05.207Z,100034.23
2019-04-09T02:05:43.580Z,100030.44
2019-04-09T02:08:42.284Z,100031.20
2019-04-09T02:11:22.139Z,100031.22
2019-04-09T02:14:03.966Z,100026.29
2019-04-09T02:16:55.551Z,100024.72
2019-04-09T02:19:41.802Z,100023.28
2019-04-09T02:22:40.064Z,100025.45
2019-04-09T02:25:18.970Z,100030.50
2019-04-09T02:28:11.649Z,100030.14
2019-04-09T02:30:57.666Z,100033.87
2019-04-09T02:33:42.785Z,100031.95
2019-04-09T02:36:24.414Z,100031.01
2019-04-09T02:39:08.707Z,100030.40
2019-04-09T02:41:56.355Z,100032.91
2019-04-09T02:44:50.059Z,100032.41
2019-04-09T02:47:36.249Z,100036.49
2019-04-09T02:50:10.397Z,100036.26
2019-04-09T02:52:58.657Z,100031.55
2019-04-09T02:55:47.397Z,100039.67
2019-04-09T02:58:24.846Z,100031.08
2019-04-09T03:01:15.071Z,100032.27
2019-04-09T03:04:00.134Z,100035.28
2019-04-09T03:06:53.027Z,100033.37
2019-04-09T03:09:30.943Z,100029.80
2019-04-09T03:12:35.692Z,100023.22
2019-04-09T03:15:20.879Z,100021.20
2019-04-09T03:18:26.792Z,100013.08
2019-04-09T03:21:07.705Z,100012.11
2019-04-09T03:23:41.403Z,100004.11
2019-04-09T03:26:22.968Z,100003.28
2019-04-09T03:29:11.522Z,100004.98
2019-04-09T03:31:47.862Z,100011.08
2019-04-09T03:34:30.557Z,100013.57
2019-04-09T03:37:26.677Z,100016.20
2019-04-09T03:40:13.381Z,100021.45
2019-04-09T03:42:55.264Z,100026.98
2019-04-09T03:45:49.286Z,100027.69
2019-04-09T03:48:41.922Z,100025.02
2019-04-09T03:51:41.783Z,100026.33
2019-04-09T03:54:35.052Z,100027.88
2019-04-09T03:57:40.074Z,100020.02
2019-04-09T04:00:32.912Z,100023.97
2019-04-09T04:03:09.518Z,100028.62
2019-04-09T04:06:08.126Z,100036.16
2019-04-09T04:09:00.957Z,100033.30
2019-04-09T04:11:50.205Z,100041.91
2019-04-09T04:14:35.159Z,100035.58
2019-04-09T04:17:27.793Z,100032.38
2019-04-09T04:20:26.730Z,100033.59
2019-04-09T04:23:11.659Z,100024.27
2019-04-09T04:26:07.378Z,100023.68
2019-04-09T04:28:57.428Z,100020.22
2019-04-09T04:31:46.962Z,100018.20
2019-04-09T04:34:36.117Z,100020.47
2019-04-09T04:37:37.886Z,100022.23
2019-04-09T04:40:32.038Z,100022.02
2019-04-09T04:43:19.060Z,100020.34
2019-04-09T04:46:04.056Z,100017.11
2019-04-09T04:48:56.613Z,100020.81
2019-04-09T04:52:00.541Z,100015.30
2019-04-09T04:54:50.524Z,100022.12
2019-04-09T04:57:35.802Z,100017.83
2019-04-09T05:00:17.629Z,100020.33
2019-04-09T05:03:16.301Z,100025.66
2019-04-09T05:06:11.876Z,100024.49
2019-04-09T05:08:55.672Z,100023.87
2019-04-09T05:11:33.124Z,100027.69
2019-04-09T05:14:20.120Z,100026.23
2019-04-09T05:17:00.256Z,100029.20
2019-04-09T05:19:46.495Z,100030.47
2019-04-09T05:22:40.206Z,100034.03
2019-04-09T05:25:21.815Z,100044.61
2019-04-09T05:27:58.324Z,100051.09
2019-04-09T05:30:46.392Z,100044.07
2019-04-09T05:33:22.667Z,100048.58
2019-04-09T05:36:27.755Z,100051.94
2019-04-09T05:39:12.813Z,100054.37
2019-04-09T05:41:58.389Z,100057.00
2019-04-09T05:44:59.807Z,100068.91
2019-04-09T05:47:46.933Z,100065.53
2019-04-09T05:50:45.799Z,100050.94
2019-04-09T05:53:45.555Z,100064.41
2019-04-09T05:56:35.117Z,100069.06
2019-04-09T05:59:27.698Z,100072.23
2019-04-09T06:02:05.393Z,100059.83
2019-04-09T06:04:46.547Z,100057.23
2019-04-09T06:07:33.336Z,100060.02
2019-04-09T06:10:00.536Z,100053.55
2019-04-09T06:12:27.747Z,100055.30
2019-04-09T06:14:56.736Z,100052.20
2019-04-09T06:17:23.971Z,100053.06
2019-04-09T06:19:51.117Z,100060.03
2019-04-09T06:22:19.181Z,100060.70
2019-04-09T06:24:46.379Z,100052.46
2019-04-09T06:27:14.072Z,100049.89
2019-04-09T06:29:41.241Z,100050.02
2019-04-09T06:32:14.057Z,100039.44
2019-04-09T06:34:46.828Z,100042.39
2019-04-09T06:37:26.270Z,100039.78
2019-04-09T06:39:59.219Z,100040.89
2019-04-09T06:42:48.556Z,100040.30
2019-04-09T06:45:35.329Z,100041.22
2019-04-09T06:48:31.303Z,100043.11
2019-04-09T06:51:31.416Z,100046.42
2019-04-09T06:53:59.886Z,100051.08
2019-04-09T06:56:52.948Z,100050.73
2019-04-09T06:59:39.895Z,100051.41
2019-04-09T07:02:25.892Z,100050.41
2019-04-09T07:05:13.475Z,100055.91
2019-04-09T07:07:52.599Z,100057.05
2019-04-09T07:13:44.052Z,100059.17
2019-04-09T07:16:21.454Z,100053.01
2019-04-09T07:19:21.035Z,100052.33
2019-04-09T07:22:02.563Z,100051.13
2019-04-09T07:25:07.770Z,100054.86
2019-04-09T07:27:43.255Z,100048.48
2019-04-09T07:30:29.972Z,100047.77
2019-04-09T07:33:11.142Z,100045.97
2019-04-09T07:35:54.838Z,100044.95
2019-04-09T07:38:51.641Z,100043.38
2019-04-09T07:41:41.437Z,100044.27
2019-04-09T07:44:32.071Z,100046.87
2019-04-09T07:47:29.702Z,100044.66
2019-04-09T07:50:19.820Z,100049.80
2019-04-09T07:53:22.860Z,100046.67
2019-04-09T07:55:58.077Z,100050.75
2019-04-09T07:58:31.538Z,100061.72
2019-04-09T08:01:19.596Z,100053.28
2019-04-09T08:03:56.214Z,100061.95
2019-04-09T08:06:33.824Z,100068.41
2019-04-09T08:09:19.210Z,100065.88
2019-04-09T08:12:05.027Z,100063.39
2019-04-09T08:15:10.229Z,100059.76
2019-04-09T08:18:04.753Z,100064.91
2019-04-09T08:20:50.208Z,100059.75
2019-04-09T08:23:35.702Z,100065.53
2019-04-09T08:26:18.349Z,100070.24
2019-04-09T08:29:03.221Z,100064.85
2019-04-09T08:31:54.373Z,100064.77
2019-04-09T08:34:36.207Z,100067.93
2019-04-09T08:37:24.205Z,100072.05
2019-04-09T08:40:12.113Z,100076.70
2019-04-09T08:43:02.850Z,100077.45
2019-04-09T08:45:53.818Z,100075.43
2019-04-09T08:48:46.040Z,100071.33
2019-04-09T08:51:29.405Z,100078.89
2019-04-09T08:54:16.876Z,100075.83
2019-04-09T08:56:53.014Z,100070.07
2019-04-09T08:59:29.785Z,100062.08
2019-04-09T09:02:22.717Z,100065.37
2019-04-09T09:05:12.552Z,100061.30
2019-04-09T09:07:50.332Z,100064.18
2019-04-09T09:10:35.769Z,100061.85
2019-04-09T09:13:22.634Z,100062.61
2019-04-09T09:16:25.353Z,100059.62
2019-04-09T09:19:08.744Z,100061.70
2019-04-09T09:22:00.251Z,100054.57
2019-04-09T09:24:50.323Z,100055.00
2019-04-09T09:27:43.484Z,100053.16
2019-04-09T09:30:53.777Z,100056.01
2019-04-09T09:33:22.461Z,100048.51
2019-04-09T09:36:16.252Z,100050.66
2019-04-09T09:39:05.638Z,100054.63
2019-04-09T09:42:06.667Z,100047.20
2019-04-09T09:44:43.753Z,100042.95
2019-04-09T09:47:50.023Z,100043.61
2019-04-09T09:50:24.569Z,100034.57
2019-04-09T09:53:04.415Z,100029.94
2019-04-09T09:55:56.889Z,100039.22
2019-04-09T09:58:37.430Z,100031.65
2019-04-09T10:01:20.485Z,100025.46
2019-04-09T10:03:57.181Z,100026.09
2019-04-09T10:06:46.823Z,100021.02
2019-04-09T10:09:31.119Z,100019.47
2019-04-09T10:12:28.632Z,100014.11
2019-04-09T10:15:17.629Z,100015.53
2019-04-09T10:18:06.483Z,100014.16
2019-04-09T10:20:58.961Z,100009.18
2019-04-09T10:23:39.962Z,100009.94
2019-04-09T10:26:36.636Z,100006.56
2019-04-09T10:29:24.151Z,100001.20
2019-04-09T10:32:07.524Z,99999.07
2019-04-09T10:34:43.248Z,99997.72
2019-04-09T10:37:23.421Z,99999.09
2019-04-09T10:40:21.897Z,100000.73
2019-04-09T10:43:11.321Z,99993.42
2019-04-09T10:46:02.458Z,99997.95
2019-04-09T10:48:44.880Z,100003.39
2019-04-09T10:51:23.849Z,99995.20
2019-04-09T10:54:05.259Z,99997.64
2019-04-09T10:56:44.726Z,99997.05
2019-04-09T10:59:35.881Z,99995.63
2019-04-09T11:02:24.449Z,99991.41
2019-04-09T11:05:12.438Z,99995.11
2019-04-09T11:07:51.893Z,99990.56
2019-04-09T11:10:38.225Z,99994.06
2019-04-09T11:13:18.671Z,100001.23
2019-04-09T11:16:08.693Z,99995.59
2019-04-09T11:18:51.722Z,99993.27
2019-04-09T11:21:31.842Z,99988.52
2019-04-09T11:24:16.328Z,99992.28
2019-04-09T11:27:03.388Z,99994.28
2019-04-09T11:30:07.903Z,99993.43
2019-04-09T11:32:54.102Z,99998.35
2019-04-09T11:35:46.749Z,99994.94
2019-04-09T11:38:32.334Z,99993.92
2019-04-09T11:41:34.839Z,99995.70
2019-04-09T11:44:27.041Z,99994.87
2019-04-09T11:47:17.409Z,99992.77
2019-04-09T11:50:04.180Z,99987.80
2019-04-09T11:52:50.608Z,99989.50
2019-04-09T11:55:37.663Z,99979.70
2019-04-09T11:58:13.341Z,99983.08
2019-04-09T12:00:50.778Z,99974.11
2019-04-09T12:03:36.034Z,99973.09
2019-04-09T12:06:16.130Z,99971.33
2019-04-09T12:09:09.055Z,99973.17
2019-04-09T12:11:58.525Z,99966.80
2019-04-09T12:14:44.405Z,99962.73
2019-04-09T12:17:37.478Z,99963.24
2019-04-09T12:20:22.465Z,99960.57
2019-04-09T12:23:09.949Z,99959.44
2019-04-09T12:25:55.941Z,99958.60
2019-04-09T12:29:06.954Z,99959.11
2019-04-09T12:32:14.777Z,99951.48
2019-04-09T12:34:56.957Z,99949.40
2019-04-09T12:37:33.408Z,99948.28
2019-04-09T12:40:18.673Z,99938.20
2019-04-09T12:43:05.150Z,99937.20
2019-04-09T12:46:01.118Z,99940.13
2019-04-09T12:48:47.351Z,99933.84
2019-04-09T12:51:28.991Z,99928.33
2019-04-09T12:54:15.954Z,99926.83
2019-04-09T12:57:05.966Z,99925.80
2019-04-09T12:59:53.710Z,99925.89
2019-04-09T13:02:35.976Z,99917.08
2019-04-09T13:05:13.341Z,99919.72
2019-04-09T13:07:48.879Z,99915.00
2019-04-09T13:10:44.456Z,99914.70
2019-04-09T13:13:33.677Z,99907.41
2019-04-09T13:16:25.759Z,99905.31
2019-04-09T13:19:25.122Z,99900.80
2019-04-09T13:22:15.224Z,99896.24
2019-04-09T13:24:58.841Z,99886.01
2019-04-09T13:27:52.190Z,99883.27
2019-04-09T13:30:57.245Z,99889.28
2019-04-09T13:33:31.612Z,99879.37
2019-04-09T13:36:17.729Z,99875.25
2019-04-09T13:39:19.782Z,99876.05
2019-04-09T13:42:00.860Z,99865.26
2019-04-09T13:44:43.515Z,99871.23
2019-04-09T13:47:35.310Z,99858.52
2019-04-09T13:50:28.944Z,99867.81
2019-04-09T13:52:56.338Z,99859.88
2019-04-09T13:55:24.043Z,99858.53
2019-04-09T13:57:51.248Z,99849.78
2019-04-09T14:00:19.155Z,99844.02
2019-04-09T14:03:26.319Z,99846.03
2019-04-09T14:05:44.353Z,99843.33
2019-04-09T14:08:11.547Z,99836.66
2019-04-09T14:10:47.806Z,99829.20
2019-04-09T14:13:07.856Z,99835.95
2019-04-09T14:15:35.053Z,99824.05
2019-04-09T14:18:02.150Z,99827.09
2019-04-09T14:20:29.323Z,99823.30
2019-04-09T14:22:56.513Z,99826.20
2019-04-09T14:25:24.132Z,99826.37
2019-04-09T14:27:51.312Z,99826.56
2019-04-09T14:30:18.501Z,99824.86
2019-04-09T14:32:45.978Z,99829.17
2019-04-09T14:35:13.863Z,99825.03
2019-04-09T14:37:42.090Z,99821.70
2019-04-09T14:40:10.040Z,99825.17
2019-04-09T14:42:37.096Z,99829.17
2019-04-09T14:45:05.296Z,99822.98
2019-04-09T14:47:33.609Z,99830.14
2019-04-09T14:50:01.939Z,99830.46
2019-04-09T14:52:29.419Z,99828.16
2019-04-09T14:54:57.551Z,99823.23
2019-04-09T14:57:25.746Z,99828.48
2019-04-09T14:59:52.976Z,99826.84
2019-04-09T15:02:20.260Z,99831.76
2019-04-09T15:04:48.260Z,99831.16
2019-04-09T15:07:15.427Z,99830.08
2019-04-09T15:09:43.467Z,99827.01
2019-04-09T15:12:10.964Z,99825.30
2019-04-09T15:14:38.306Z,99821.11
2019-04-09T15:17:05.526Z,99829.54
2019-04-09T15:19:32.701Z,99824.95
2019-04-09T15:22:09.686Z,99829.10
2019-04-09T15:24:36.781Z,99827.09
2019-04-09T15:27:03.961Z,99828.98
2019-04-09T15:29:31.664Z,99826.48
2019-04-09T15:31:59.195Z,99831.90
2019-04-09T15:34:26.770Z,99830.23
2019-04-09T15:36:56.339Z,99834.50
2019-04-09T15:39:25.249Z,99834.70
2019-04-09T15:41:52.490Z,99841.52
2019-04-09T15:44:23.636Z,99838.00
2019-04-09T15:46:49.339Z,99838.59
2019-04-09T15:49:16.549Z,99837.80
2019-04-09T15:51:44.071Z,99839.36
2019-04-09T15:54:12.415Z,99832.16
2019-04-09T15:56:39.674Z,99834.36
2019-04-09T15:59:07.914Z,99839.56
2019-04-09T16:01:36.036Z,99847.16
2019-04-09T16:04:03.315Z,99856.74
2019-04-09T16:06:30.645Z,99862.73
2019-04-09T16:08:58.130Z,99870.63
2019-04-09T16:11:25.161Z,99880.41
2019-04-09T16:13:52.404Z,99886.91
2019-04-09T16:16:19.453Z,99887.73
2019-04-09T16:18:46.601Z,99902.56
2019-04-09T16:21:14.145Z,99921.05
2019-04-09T16:23:41.472Z,99931.17
2019-04-09T16:26:08.938Z,99927.80
2019-04-09T16:28:36.175Z,99932.44
2019-04-09T16:31:04.226Z,99933.37
2019-04-09T16:33:32.222Z,99934.34
2019-04-09T16:35:59.394Z,99930.50
2019-04-09T16:38:26.557Z,99930.98
2019-04-09T16:40:55.031Z,99944.06
2019-04-09T16:43:22.267Z,99938.55
2019-04-09T16:45:50.210Z,99937.16
2019-04-09T16:48:17.511Z,99935.61
2019-04-09T16:50:44.627Z,99935.02
2019-04-09T16:53:11.759Z,99938.98
2019-04-09T16:55:39.186Z,99933.03
2019-04-09T16:58:08.419Z,99936.86
2019-04-09T17:00:35.426Z,99931.84
2019-04-09T17:03:02.541Z,99929.16
2019-04-09T17:05:30.970Z,99934.22
2019-04-09T17:07:58.938Z,99934.50
2019-04-09T17:10:26.395Z,99935.17
2019-04-09T17:12:53.709Z,99930.05
2019-04-09T17:15:20.908Z,99932.80
2019-04-09T17:17:47.999Z,99933.79
2019-04-09T17:20:16.336Z,99943.68
2019-04-09T17:22:43.597Z,99948.05
2019-04-09T17:25:11.875Z,99940.77
2019-04-09T17:27:41.211Z,99938.48
2019-04-09T17:30:08.648Z,99934.05
2019-04-09T17:32:36.189Z,99946.02
2019-04-09T17:35:04.648Z,99940.73
2019-04-09T17:37:31.829Z,99939.20
2019-04-09T17:40:05.109Z,99943.45
2019-04-09T17:42:28.235Z,99938.16
2019-04-09T17:44:55.677Z,99928.12
2019-04-09T17:47:23.182Z,99930.16
2019-04-09T17:49:50.627Z,99924.70
2019-04-09T17:52:17.930Z,99920.06
2019-04-09T17:54:46.225Z,99923.59
2019-04-09T17:57:13.519Z,99920.36
2019-04-09T17:59:40.963Z,99927.16
2019-04-09T18:02:08.158Z,99927.44
2019-04-09T18:04:44.572Z,99940.42
2019-04-09T18:07:04.544Z,99934.20
2019-04-09T18:09:31.756Z,99938.91
2019-04-09T18:11:59.645Z,99946.42
2019-04-09T18:14:27.304Z,99946.36
2019-04-09T18:16:55.128Z,99946.45
2019-04-09T18:19:23.219Z,99951.05
2019-04-09T18:21:51.139Z,99956.00
2019-04-09T18:24:18.288Z,99961.28
2019-04-09T18:26:45.461Z,99964.13
2019-04-09T18:29:13.388Z,99960.77
2019-04-09T18:31:40.953Z,99965.59
2019-04-09T18:34:08.962Z,99958.64
2019-04-09T18:36:36.749Z,99969.41
2019-04-09T18:39:05.703Z,99976.35
2019-04-09T18:41:32.883Z,99973.71
2019-04-09T18:44:00.351Z,99981.98
2019-04-09T18:46:28.177Z,99981.00
2019-04-09T18:48:56.910Z,99999.35
2019-04-09T18:51:26.886Z,99992.02
2019-04-09T18:53:53.470Z,99997.80
2019-04-09T18:56:22.089Z,100001.90
2019-04-09T18:58:49.591Z,100009.28
2019-04-09T19:01:17.116Z,100014.09
2019-04-09T19:03:44.386Z,100017.68
2019-04-09T19:06:12.405Z,100019.00
2019-04-09T19:08:39.570Z,100017.64
2019-04-09T19:11:07.633Z,100025.35
2019-04-09T19:13:35.333Z,100029.52
2019-04-09T19:16:02.503Z,100030.50
2019-04-09T19:18:29.960Z,100037.66
2019-04-09T19:20:58.372Z,100040.34
2019-04-09T19:23:28.929Z,100039.80
2019-04-09T19:25:54.850Z,100031.94
2019-04-09T19:28:22.011Z,100043.41
2019-04-09T19:30:49.236Z,100045.80
2019-04-09T19:33:16.449Z,100053.09
2019-04-09T19:35:43.948Z,100058.75
2019-04-09T19:38:14.004Z,100056.80
2019-04-09T19:40:40.512Z,100058.89
2019-04-09T19:43:08.255Z,100066.12
2019-04-09T19:45:37.682Z,100068.00
2019-04-09T19:48:04.822Z,100066.54
2019-04-09T19:50:32.960Z,100066.33
2019-04-09T19:53:01.890Z,100068.06
2019-04-09T19:55:29.151Z,100074.37
2019-04-09T19:57:57.436Z,100080.95
2019-04-09T20:00:25.533Z,100093.55
2019-04-09T20:02:52.761Z,100102.32
2019-04-09T20:05:29.158Z,100112.44
2019-04-09T20:07:49.050Z,100105.82
2019-04-09T20:10:29.166Z,100108.84
2019-04-09T20:12:56.611Z,100104.78
2019-04-09T20:15:24.142Z,100109.03
2019-04-09T20:17:51.496Z,100100.89
2019-04-09T20:20:19.712Z,100111.48
2019-04-09T20:22:47.587Z,100100.64
2019-04-09T20:25:15.535Z,100098.98
2019-04-09T20:27:43.444Z,100101.05
2019-04-09T20:30:11.816Z,100105.25
2019-04-09T20:32:39.179Z,100102.14
2019-04-09T20:35:11.410Z,100101.11
2019-04-09T20:37:35.547Z,100096.53
2019-04-09T20:40:03.634Z,100097.53
2019-04-09T20:42:31.141Z,100099.00
2019-04-09T20:44:58.617Z,100090.38
2019-04-09T20:47:26.803Z,100094.83
2019-04-09T20:49:54.847Z,100095.92
2019-04-09T20:52:22.009Z,100100.28
2019-04-09T20:54:55.403Z,100092.84
2019-04-09T20:57:23.761Z,100094.78
2019-04-09T21:00:15.970Z,100099.14
2019-04-09T21:02:56.335Z,100102.05
2019-04-09T21:05:23.644Z,100101.67
2019-04-09T21:07:50.971Z,100102.05
2019-04-09T21:10:19.058Z,100111.28
2019-04-09T21:12:46.702Z,100113.06
2019-04-09T21:15:14.478Z,100110.33
2019-04-09T21:17:41.990Z,100108.81
2019-04-09T21:20:09.573Z,100110.38
2019-04-09T21:22:36.885Z,100111.82
2019-04-09T21:25:04.396Z,100108.04
2019-04-09T21:27:31.814Z,100112.56
2019-04-09T21:29:59.570Z,100116.50
2019-04-09T21:32:26.942Z,100115.30
2019-04-09T21:34:54.925Z,100115.47
2019-04-09T21:37:22.139Z,100108.44
2019-04-09T21:39:49.735Z,100116.69
2019-04-09T21:42:16.985Z,100109.53
2019-04-09T21:44:44.970Z,100117.58
2019-04-09T21:47:12.184Z,100120.52
2019-04-09T21:49:40.254Z,100115.70
2019-04-09T21:52:08.438Z,100122.81
2019-04-09T21:54:35.923Z,100121.66
2019-04-09T21:57:03.161Z,100120.38
2019-04-09T21:59:30.959Z,100117.70
2019-04-09T22:01:58.216Z,100113.13
2019-04-09T22:04:25.713Z,100111.16
2019-04-09T22:06:53.240Z,100114.19
2019-04-09T22:09:20.776Z,100110.02
2019-04-09T22:11:49.154Z,100116.59
2019-04-09T22:14:16.502Z,100123.30
2019-04-09T22:16:43.592Z,100126.22
2019-04-09T22:19:10.796Z,100132.72
2019-04-09T22:21:38.670Z,100129.16
2019-04-09T22:24:05.848Z,100131.45
2019-04-09T22:26:33.930Z,100133.38
2019-04-09T22:29:01.140Z,100129.90
2019-04-09T22:31:28.577Z,100137.33
2019-04-09T22:33:55.758Z,100127.07
2019-04-09T22:36:30.969Z,100135.70
2019-04-09T22:38:52.028Z,100133.06
2019-04-09T22:41:19.516Z,100131.17
2019-04-09T22:43:46.910Z,100138.25
2019-04-09T22:46:14.164Z,100134.56
2019-04-09T22:48:41.371Z,100130.38
2019-04-09T22:51:08.530Z,100131.11
2019-04-09T22:53:36.599Z,100126.20
2019-04-09T22:56:04.808Z,100126.31
2019-04-09T22:58:32.960Z,100130.73
2019-04-09T23:01:34.683Z,100126.90
2019-04-09T23:04:20.107Z,100129.06
2019-04-09T23:07:00.572Z,100129.00
2019-04-09T23:09:47.716Z,100130.70
2019-04-09T23:12:25.717Z,100129.62
2019-04-09T23:14:52.877Z,100127.48
2019-04-09T23:17:20.330Z,100130.73
2019-04-09T23:19:48.187Z,100129.67
2019-04-09T23:22:16.109Z,100134.33
2019-04-09T23:24:44.135Z,100133.13
2019-04-09T23:27:12.384Z,100137.57
2019-04-09T23:29:39.467Z,100138.95
2019-04-09T23:32:07.557Z,100135.27
2019-04-09T23:34:34.695Z,100137.28
2019-04-09T23:37:05.889Z,100132.95
2019-04-09T23:39:30.923Z,100135.00
2019-04-09T23:41:58.855Z,100135.47
2019-04-09T23:44:33.175Z,100136.44
2019-04-09T23:46:56.181Z,100137.52
2019-04-09T23:49:23.469Z,100136.78
2019-04-09T23:51:50.567Z,100131.41
2019-04-09T23:54:18.043Z,100136.55
2019-04-09T23:56:45.241Z,100139.56
2019-04-09T23:59:13.656Z,100131.91
